PAJN/JNU METAR and TAF weather

Enter ICAO airport designator
Station Type Date Time Source
PAJN METAR 2021/05/15 01:53 UTC NOAA

PAJN 150153Z 12014KT 10SM -RA FEW009 BKN031 OVC042 08/05 A3011 RMK AO2 SLP196 P0000 T00830050


Station Type Date Time Source
PAJN Decoded METAR 2021/05/15 01:53 UTC NOAA

JUNEAU INTERNATIONAL AIRPORT, AK, United States (PAJN) 58-21N 134-34W 8M
May 14, 2021 - 09:53 PM EDT / 2021.05.15 0153 UTC
Wind: from the ESE (120 degrees) at 16 MPH (14 KT):0
Visibility: 10 mile(s):0
Sky conditions: overcast
Weather: light rain
Precipitation last hour: A trace
Temperature: 46.9 F (8.3 C)
Dew Point: 41.0 F (5.0 C)
Relative Humidity: 79%
Pressure (altimeter): 30.11 in. Hg (1019 hPa)
ob: PAJN 150153Z 12014KT 10SM -RA FEW009 BKN031 OVC042 08/05 A3011 RMK AO2 SLP196 P0000 T00830050
cycle: 2

Station Type Date Time Source
PAJN TAF 2021/05/14 18:30 UTC NOAA

TAF PAJN 141727Z 1418/1518 09013KT 6SM -RA BR FEW007 BKN025 OVC040
TEMPO 1418/1422 OVC050
FM150300 11009KT 5SM -RA BR SCT007 OVC015

Example: see airport list